Time;durP1;ratioP1;P1;durP2;ratioP2;P2;SDS_P1;SDS_P2;PMS_P1;PMS_P2;Temp;Humidity;BMP_temperature;BMP_pressure;BME280_temperature;BME280_humidity;BME280_pressure;Samples;Min_cycle;Max_cycle;Signal;HPM_P1;HPM_P2
2022/01/13 00:02:05;;;;;;;33.40;16.30;;;-1.30;99.90;;;;;;4961805;28;20943;-75
2022/01/13 00:04:31;;;;;;;30.87;17.70;;;-1.30;99.90;;;;;;4967251;28;20694;-76
2022/01/13 00:06:56;;;;;;;29.60;17.17;;;-1.30;99.90;;;;;;4970586;28;20397;-74
2022/01/13 00:09:22;;;;;;;33.40;17.27;;;-1.20;99.90;;;;;;4968630;28;20450;-75
2022/01/13 00:11:49;;;;;;;36.30;18.37;;;-1.20;99.90;;;;;;4971303;28;20217;-72
2022/01/13 00:16:44;;;;;;;34.17;17.93;;;-1.10;99.90;;;;;;4973085;28;20801;-75
2022/01/13 00:21:48;;;;;;;33.50;18.10;;;-1.10;99.90;;;;;;4965512;28;20435;-75
2022/01/13 00:24:14;;;;;;;32.40;19.00;;;-1.00;99.90;;;;;;4974096;28;20433;-74
2022/01/13 00:26:41;;;;;;;30.90;17.00;;;-1.00;99.90;;;;;;4973074;28;20966;-75
2022/01/13 00:29:08;;;;;;;33.87;18.43;;;-0.90;99.90;;;;;;4974351;28;20392;-75
2022/01/13 00:31:36;;;;;;;34.27;17.13;;;-0.90;99.90;;;;;;4967440;28;20437;-74
2022/01/13 00:34:04;;;;;;;28.50;17.10;;;-0.90;99.90;;;;;;4973602;28;20957;-74
2022/01/13 00:36:32;;;;;;;28.50;17.03;;;-0.80;99.90;;;;;;4970568;28;20450;-74
2022/01/13 00:38:58;;;;;;;29.60;16.87;;;-0.80;99.90;;;;;;4967642;28;20460;-74
2022/01/13 00:41:27;;;;;;;29.03;16.90;;;-0.80;99.90;;;;;;4972528;28;20462;-74
2022/01/13 00:43:54;;;;;;;34.27;18.83;;;-0.80;99.90;;;;;;4970605;28;20448;-74
2022/01/13 00:46:26;;;;;;;35.23;18.60;;;-0.70;99.90;;;;;;4971321;28;20469;-74
2022/01/13 00:48:54;;;;;;;36.93;18.90;;;-0.70;99.90;;;;;;4973258;28;20446;-75
2022/01/13 00:51:21;;;;;;;29.53;18.10;;;-0.60;99.90;;;;;;4973723;28;20406;-73
2022/01/13 00:53:48;;;;;;;29.00;18.00;;;-0.50;99.90;;;;;;4969072;28;20521;-72
2022/01/13 00:56:14;;;;;;;35.17;19.03;;;-0.50;99.90;;;;;;4974407;28;20387;-75
2022/01/13 00:58:39;;;;;;;29.97;19.87;;;-0.40;99.90;;;;;;4972821;28;20962;-74
2022/01/13 05:32:06;;;;;;;39.70;21.33;;;-0.20;99.90;;;;;;5417450;23;20479;-70
2022/01/13 05:34:31;;;;;;;44.17;20.90;;;-0.20;99.90;;;;;;4947025;28;20530;-71
2022/01/13 05:36:57;;;;;;;37.70;22.60;;;-0.20;99.90;;;;;;4954104;29;20987;-74
2022/01/13 05:39:22;;;;;;;32.17;19.47;;;-0.10;99.90;;;;;;4952111;29;20278;-70
2022/01/13 05:41:48;;;;;;;44.17;22.57;;;-0.10;99.90;;;;;;4954425;28;20287;-74
2022/01/13 05:44:13;;;;;;;37.43;22.20;;;-0.20;99.90;;;;;;4950991;29;20239;-74
2022/01/13 05:46:39;;;;;;;41.90;22.80;;;-0.10;99.90;;;;;;4952389;29;20854;-74
2022/01/13 05:49:04;;;;;;;40.47;22.60;;;-0.20;99.90;;;;;;4951821;29;20674;-74
2022/01/13 05:51:30;;;;;;;44.03;21.90;;;-0.20;99.90;;;;;;4949701;28;20862;-74
2022/01/13 05:53:55;;;;;;;35.77;21.67;;;-0.20;99.90;;;;;;4953573;28;20650;-74
2022/01/13 05:56:21;;;;;;;40.53;22.20;;;-0.20;99.90;;;;;;4951964;29;20224;-73
2022/01/13 05:58:47;;;;;;;38.90;21.57;;;-0.20;99.90;;;;;;4954145;29;20181;-73
2022/01/13 06:01:13;;;;;;;33.53;20.03;;;-0.20;99.90;;;;;;4946208;28;20299;-74
2022/01/13 06:03:38;;;;;;;35.33;20.20;;;-0.20;99.90;;;;;;4953536;29;20522;-73
2022/01/13 06:06:04;;;;;;;37.53;21.90;;;-0.20;99.90;;;;;;4952387;29;20189;-73
2022/01/13 06:08:29;;;;;;;37.57;19.70;;;-0.10;99.90;;;;;;4953518;29;20176;-74
2022/01/13 06:10:55;;;;;;;36.80;20.83;;;-0.10;99.90;;;;;;4951369;28;20236;-73
2022/01/13 06:13:20;;;;;;;29.80;18.30;;;0.00;99.90;;;;;;4951689;29;20194;-73
2022/01/13 06:15:46;;;;;;;36.90;21.10;;;0.00;99.90;;;;;;4953056;29;20188;-74
2022/01/13 06:18:14;;;;;;;35.40;19.03;;;0.00;99.90;;;;;;4951620;29;20665;-72
2022/01/13 06:20:40;;;;;;;34.33;19.97;;;-0.10;99.90;;;;;;4953151;28;20332;-75
2022/01/13 06:23:07;;;;;;;31.10;19.43;;;0.00;99.90;;;;;;4948583;28;20435;-74
2022/01/13 06:25:34;;;;;;;37.77;19.27;;;0.00;99.90;;;;;;4953932;28;20915;-74
2022/01/13 06:27:59;;;;;;;38.07;21.50;;;0.00;99.90;;;;;;4951844;28;20507;-74
2022/01/13 06:30:25;;;;;;;34.40;20.17;;;-0.10;99.90;;;;;;4953152;28;20433;-70
2022/01/13 06:32:51;;;;;;;36.80;21.00;;;-0.10;99.90;;;;;;4942919;29;20257;-70
2022/01/13 06:35:16;;;;;;;35.53;21.17;;;0.00;99.90;;;;;;4950890;29;20784;-74
2022/01/13 06:37:42;;;;;;;37.20;22.00;;;0.00;99.90;;;;;;4951106;29;20196;-74
2022/01/13 06:40:10;;;;;;;32.27;18.50;;;0.00;99.90;;;;;;4951046;29;20589;-75
2022/01/13 06:42:36;;;;;;;35.60;22.50;;;0.00;99.90;;;;;;4952969;28;20189;-74
2022/01/13 06:45:03;;;;;;;40.17;20.83;;;0.00;99.90;;;;;;4947985;29;20441;-74
2022/01/13 06:47:28;;;;;;;41.10;21.90;;;0.00;99.90;;;;;;4950724;28;20196;-74
2022/01/13 06:49:54;;;;;;;30.10;18.70;;;0.00;99.90;;;;;;4950611;29;20411;-75
2022/01/13 06:52:19;;;;;;;38.60;21.80;;;0.00;99.90;;;;;;4952600;28;20284;-73
2022/01/13 06:54:45;;;;;;;36.77;20.87;;;0.00;99.90;;;;;;4949351;29;20184;-73
2022/01/13 06:57:10;;;;;;;40.53;20.53;;;0.00;99.90;;;;;;4949116;29;20184;-74
2022/01/13 06:59:36;;;;;;;38.70;21.00;;;0.10;99.90;;;;;;4950756;29;20707;-74
2022/01/13 07:02:02;;;;;;;40.87;21.40;;;0.10;99.90;;;;;;4950621;28;20422;-74
2022/01/13 07:04:28;;;;;;;37.20;21.83;;;0.10;99.90;;;;;;4951056;28;20211;-74
2022/01/13 07:06:54;;;;;;;33.73;20.23;;;0.10;99.90;;;;;;4949761;29;20443;-74
2022/01/13 07:09:21;;;;;;;40.10;21.17;;;0.10;99.90;;;;;;4952205;28;20440;-75
2022/01/13 07:11:47;;;;;;;36.37;21.73;;;0.10;99.90;;;;;;4950876;28;20543;-73
2022/01/13 07:14:13;;;;;;;39.83;21.77;;;0.10;99.90;;;;;;4951725;28;21119;-72
2022/01/13 07:16:40;;;;;;;38.37;19.90;;;0.10;99.90;;;;;;4945132;28;21016;-73
2022/01/13 07:19:08;;;;;;;41.07;21.73;;;0.10;99.90;;;;;;4951882;29;20402;-72
2022/01/13 07:21:34;;;;;;;37.57;21.67;;;0.20;99.90;;;;;;4949331;28;20438;-72
2022/01/13 07:24:00;;;;;;;43.80;23.90;;;0.30;99.90;;;;;;4951846;28;20441;-72
2022/01/13 07:26:26;;;;;;;35.60;19.17;;;0.40;99.90;;;;;;4949386;29;20560;-72
2022/01/13 07:28:51;;;;;;;38.17;20.83;;;0.40;99.90;;;;;;4950486;28;20188;-70
2022/01/13 07:31:17;;;;;;;32.37;20.53;;;0.40;99.90;;;;;;4949667;28;20622;-72
2022/01/13 07:33:44;;;;;;;36.60;21.40;;;0.40;99.90;;;;;;4946298;29;20247;-72
2022/01/13 07:36:10;;;;;;;34.27;19.97;;;0.40;99.90;;;;;;4947899;29;20420;-72
2022/01/13 07:38:35;;;;;;;40.63;21.00;;;0.30;99.90;;;;;;4947629;28;20437;-72
2022/01/13 07:41:01;;;;;;;37.57;21.93;;;0.40;99.90;;;;;;4952255;28;20414;-72
2022/01/13 07:43:27;;;;;;;35.43;21.20;;;0.30;99.90;;;;;;4949206;28;20721;-73
2022/01/13 07:45:53;;;;;;;34.50;19.70;;;0.30;99.90;;;;;;4950586;28;20228;-72
2022/01/13 07:48:20;;;;;;;33.70;19.90;;;0.30;99.90;;;;;;4949304;29;20192;-71
2022/01/13 07:50:47;;;;;;;60.47;21.77;;;0.30;99.90;;;;;;4949975;28;20533;-72
2022/01/13 07:53:13;;;;;;;36.97;20.93;;;0.30;99.90;;;;;;4948993;28;20407;-71
2022/01/13 07:55:39;;;;;;;37.83;20.67;;;0.30;99.90;;;;;;4932809;29;20459;-72
2022/01/13 07:58:04;;;;;;;39.37;21.03;;;0.40;99.90;;;;;;4933141;29;20462;-73
2022/01/13 08:00:30;;;;;;;37.87;20.73;;;0.40;99.90;;;;;;4941679;29;20193;-73
2022/01/13 08:02:55;;;;;;;31.77;19.13;;;0.40;99.90;;;;;;4947971;29;20196;-74
2022/01/13 08:05:21;;;;;;;31.43;17.80;;;0.50;99.90;;;;;;4945948;29;20197;-73
2022/01/13 08:07:46;;;;;;;34.13;20.87;;;0.50;99.90;;;;;;4935374;29;20186;-73
2022/01/13 08:10:12;;;;;;;35.03;20.40;;;0.50;99.90;;;;;;4938063;29;20200;-72
2022/01/13 08:12:39;;;;;;;33.87;19.87;;;0.50;99.90;;;;;;4949244;28;21110;-74
2022/01/13 08:15:08;;;;;;;34.83;20.33;;;0.60;99.90;;;;;;4947978;29;20437;-73
2022/01/13 08:20:17;;;;;;;35.53;20.80;;;0.70;99.90;;;;;;4950171;29;20390;-72
2022/01/13 08:22:43;;;;;;;41.67;20.87;;;0.80;99.90;;;;;;4949012;28;20808;-72
2022/01/13 08:25:09;;;;;;;30.70;18.17;;;0.80;99.90;;;;;;4951402;29;20204;-74
2022/01/13 08:27:35;;;;;;;33.67;19.73;;;0.80;99.90;;;;;;4949678;28;20192;-73
2022/01/13 08:30:01;;;;;;;39.70;18.97;;;0.90;99.90;;;;;;4951802;29;20395;-73
2022/01/13 08:32:26;;;;;;;38.83;20.77;;;1.00;99.90;;;;;;4943015;28;20275;-72
2022/01/13 08:34:52;;;;;;;37.93;20.23;;;1.00;99.90;;;;;;4946929;29;20439;-73
2022/01/13 08:37:17;;;;;;;35.20;22.13;;;1.00;99.90;;;;;;4953163;29;20189;-73
2022/01/13 08:39:45;;;;;;;38.63;22.63;;;1.00;99.90;;;;;;4951906;29;20196;-73
2022/01/13 08:42:12;;;;;;;33.70;21.50;;;0.90;99.90;;;;;;4952926;28;20205;-73
2022/01/13 08:44:38;;;;;;;34.60;21.40;;;0.90;99.90;;;;;;4954723;28;20807;-72
2022/01/13 08:47:04;;;;;;;31.03;19.43;;;1.00;99.90;;;;;;4951071;28;20481;-72
2022/01/13 08:49:29;;;;;;;27.07;18.87;;;0.90;99.90;;;;;;4954803;29;20453;-73
2022/01/13 08:51:55;;;;;;;21.73;13.33;;;1.00;99.90;;;;;;4955024;28;20438;-73
2022/01/13 08:54:22;;;;;;;32.90;16.00;;;0.80;99.90;;;;;;4950344;28;20192;-73
2022/01/13 08:56:48;;;;;;;31.47;16.20;;;1.00;99.90;;;;;;4954881;28;20517;-73
2022/01/13 08:59:14;;;;;;;27.40;15.80;;;1.10;99.90;;;;;;4952558;28;20418;-72
2022/01/13 09:01:40;;;;;;;22.03;13.57;;;1.30;99.90;;;;;;4952872;28;20618;-72
2022/01/13 09:04:06;;;;;;;25.60;14.10;;;1.40;99.90;;;;;;4952105;28;20217;-72
2022/01/13 09:06:31;;;;;;;18.60;12.57;;;1.50;99.90;;;;;;4952164;29;20518;-70
2022/01/13 09:08:57;;;;;;;20.17;12.03;;;1.60;99.90;;;;;;4954192;29;20635;-74
2022/01/13 09:11:22;;;;;;;14.33;8.70;;;1.80;99.90;;;;;;4951980;28;20210;-73
2022/01/13 09:13:55;;;;;;;10.00;8.40;;;1.80;99.90;;;;;;4953727;29;20547;-73
2022/01/13 09:16:23;;;;;;;12.33;8.00;;;2.00;99.90;;;;;;4946982;28;20193;-72
2022/01/13 09:21:21;;;;;;;11.50;8.73;;;2.80;99.90;;;;;;4950312;28;21007;-72
2022/01/13 09:23:46;;;;;;;15.33;8.90;;;3.10;99.90;;;;;;4953977;29;20479;-73
2022/01/13 09:26:12;;;;;;;13.97;9.30;;;3.10;99.90;;;;;;4951374;29;20459;-73
2022/01/13 09:28:37;;;;;;;14.70;9.67;;;3.30;99.90;;;;;;4952454;29;20190;-73
2022/01/13 09:31:04;;;;;;;21.00;12.53;;;3.40;99.90;;;;;;4951397;28;20213;-73
2022/01/13 09:33:29;;;;;;;16.43;10.83;;;3.60;99.90;;;;;;4949827;29;20197;-73
2022/01/13 09:35:56;;;;;;;18.83;11.33;;;4.00;99.90;;;;;;4951039;29;21150;-73
2022/01/13 09:38:22;;;;;;;17.60;12.87;;;4.10;99.90;;;;;;4952950;29;20670;-74
2022/01/13 09:40:52;;;;;;;23.20;14.23;;;4.40;99.90;;;;;;4951136;28;20461;-73
2022/01/13 09:43:22;;;;;;;20.27;12.13;;;4.40;99.90;;;;;;4948807;29;20240;-73
2022/01/13 09:45:48;;;;;;;17.67;11.53;;;4.40;99.90;;;;;;4953999;28;20398;-74
2022/01/13 09:48:14;;;;;;;20.20;12.33;;;4.60;99.90;;;;;;4949859;28;20497;-73
2022/01/13 09:50:40;;;;;;;16.50;12.10;;;4.70;99.90;;;;;;4952046;28;20530;-74
2022/01/13 09:53:07;;;;;;;20.93;11.17;;;4.80;99.90;;;;;;4952042;28;20195;-70
2022/01/13 09:55:33;;;;;;;19.10;12.30;;;4.90;99.90;;;;;;4952387;29;20508;-72
2022/01/13 09:58:03;;;;;;;16.93;11.67;;;5.00;99.90;;;;;;4951778;29;20455;-73
2022/01/13 10:00:29;;;;;;;18.70;11.20;;;5.10;99.90;;;;;;4951916;28;20453;-72
2022/01/13 10:02:55;;;;;;;18.57;13.43;;;5.20;99.90;;;;;;4950758;29;20507;-73
2022/01/13 10:05:23;;;;;;;19.50;13.00;;;5.30;99.90;;;;;;4951495;29;20900;-72
2022/01/13 10:07:50;;;;;;;25.97;14.23;;;5.30;99.90;;;;;;4953926;28;20209;-73
2022/01/13 10:10:24;;;;;;;22.57;14.10;;;5.30;99.90;;;;;;4949418;28;20446;-73
2022/01/13 10:13:04;;;;;;;19.33;13.40;;;5.30;99.90;;;;;;4952436;28;20851;-72
2022/01/13 10:18:45;;;;;;;26.60;15.77;;;5.50;99.90;;;;;;4952805;29;20879;-72
2022/01/13 10:21:16;;;;;;;22.77;14.17;;;5.50;99.90;;;;;;4949004;28;20977;-71
2022/01/13 10:24:09;;;;;;;25.53;13.70;;;5.50;99.90;;;;;;4951388;29;20839;-71
2022/01/13 10:26:35;;;;;;;24.80;15.30;;;5.50;99.90;;;;;;4951717;29;20962;-71
2022/01/13 10:29:00;;;;;;;29.07;15.20;;;5.20;99.90;;;;;;4953765;28;20417;-71
2022/01/13 10:31:47;;;;;;;24.57;16.27;;;5.30;99.90;;;;;;4950916;28;20301;-72
2022/01/13 10:34:27;;;;;;;32.00;15.30;;;5.30;99.90;;;;;;4947177;29;20198;-72
2022/01/13 10:37:01;;;;;;;29.23;14.90;;;5.40;99.90;;;;;;4946964;29;20936;-72
2022/01/13 10:39:51;;;;;;;24.30;14.67;;;5.50;99.90;;;;;;4948490;29;20436;-72
2022/01/13 10:45:03;;;;;;;23.67;14.37;;;5.70;99.90;;;;;;4948123;29;20455;-73
2022/01/13 10:47:32;;;;;;;26.00;15.30;;;5.70;99.90;;;;;;4950526;29;20450;-74
2022/01/13 10:50:10;;;;;;;24.07;15.30;;;5.40;99.90;;;;;;4950811;29;20821;-74
2022/01/13 10:52:36;;;;;;;23.80;14.93;;;5.30;99.90;;;;;;4952770;28;20435;-73
2022/01/13 10:55:12;;;;;;;24.47;14.90;;;5.20;99.90;;;;;;4948837;28;20814;-73
2022/01/13 10:57:41;;;;;;;26.07;15.30;;;5.20;99.90;;;;;;4951945;28;20178;-72
2022/01/13 11:00:22;;;;;;;26.97;16.80;;;5.10;99.90;;;;;;4950670;28;20827;-74
2022/01/13 11:03:03;;;;;;;23.40;15.87;;;5.10;99.90;;;;;;4949543;28;20448;-72
2022/01/13 11:05:30;;;;;;;32.03;17.20;;;5.10;99.90;;;;;;4950712;29;20895;-74
2022/01/13 11:08:01;;;;;;;23.03;16.07;;;5.10;99.90;;;;;;4950368;28;20447;-73
2022/01/13 11:10:27;;;;;;;24.77;16.03;;;5.30;99.90;;;;;;4950854;28;20463;-70
2022/01/13 11:12:58;;;;;;;26.80;17.03;;;5.40;99.90;;;;;;4951977;29;20823;-72
2022/01/13 11:15:25;;;;;;;24.00;15.80;;;5.40;99.90;;;;;;4952284;28;20668;-73
2022/01/13 11:17:54;;;;;;;33.97;17.10;;;5.50;99.90;;;;;;4945713;28;21009;-71
2022/01/13 11:20:20;;;;;;;29.23;16.20;;;5.60;99.90;;;;;;4951345;28;20404;-72
2022/01/13 11:22:51;;;;;;;28.20;16.20;;;5.60;99.90;;;;;;4949558;28;20497;-71
2022/01/13 11:25:23;;;;;;;32.47;15.20;;;5.40;99.90;;;;;;4952348;28;20398;-72
2022/01/13 11:27:50;;;;;;;25.97;15.93;;;5.40;99.90;;;;;;4950180;28;20500;-73
2022/01/13 11:30:18;;;;;;;29.43;16.87;;;5.50;99.90;;;;;;4949880;28;20445;-74
2022/01/13 11:32:45;;;;;;;21.43;15.17;;;5.30;99.90;;;;;;4946575;28;20448;-73
2022/01/13 11:35:20;;;;;;;28.33;16.40;;;5.40;99.90;;;;;;4944494;29;20540;-70
2022/01/13 11:37:46;;;;;;;24.73;15.03;;;5.60;99.90;;;;;;4933447;29;20786;-73
2022/01/13 11:40:31;;;;;;;27.03;16.57;;;5.70;99.90;;;;;;4946211;29;20794;-72
2022/01/13 11:43:00;;;;;;;25.43;15.20;;;5.70;99.90;;;;;;4950451;28;20394;-72
2022/01/13 11:45:26;;;;;;;23.87;14.93;;;5.40;99.90;;;;;;4949247;28;20535;-73
2022/01/13 11:48:15;;;;;;;26.47;16.23;;;5.30;99.90;;;;;;4949443;28;20458;-71
2022/01/13 11:51:02;;;;;;;23.47;14.60;;;5.50;99.90;;;;;;4947383;28;20451;-73
2022/01/13 11:53:31;;;;;;;25.50;15.13;;;5.60;99.90;;;;;;4950421;28;20413;-72
2022/01/13 11:56:02;;;;;;;21.70;14.30;;;5.60;99.90;;;;;;4949630;28;20888;-72
2022/01/13 11:58:41;;;;;;;24.43;14.20;;;5.70;99.90;;;;;;4950674;28;20845;-72
2022/01/13 12:01:39;;;;;;;22.50;15.00;;;5.60;99.90;;;;;;4944745;28;20474;-73
2022/01/13 12:04:06;;;;;;;25.90;13.33;;;5.60;99.90;;;;;;4904100;29;20585;-73
2022/01/13 12:06:45;;;;;;;21.77;12.93;;;5.50;99.90;;;;;;4937817;29;20455;-72
2022/01/13 12:09:30;;;;;;;24.50;14.20;;;5.70;99.90;;;;;;4953078;28;20419;-71
2022/01/13 12:11:57;;;;;;;21.00;13.50;;;5.60;99.90;;;;;;4933168;28;20649;-72
2022/01/13 12:14:31;;;;;;;21.87;14.03;;;5.40;99.90;;;;;;4946301;29;20452;-73
2022/01/13 12:17:18;;;;;;;19.77;12.00;;;5.40;99.90;;;;;;4950280;29;20448;-73
2022/01/13 12:19:48;;;;;;;34.43;16.20;;;5.20;99.90;;;;;;4935142;29;20407;-73
2022/01/13 12:22:33;;;;;;;23.00;14.40;;;5.10;99.90;;;;;;4934637;29;20470;-72
2022/01/13 12:25:00;;;;;;;25.07;14.03;;;5.30;99.90;;;;;;4945763;29;20464;-73
2022/01/13 12:27:45;;;;;;;21.10;13.30;;;5.20;99.90;;;;;;4953795;28;20422;-74
2022/01/13 12:30:17;;;;;;;19.90;12.77;;;5.20;99.90;;;;;;4951992;29;21055;-73
2022/01/13 12:32:44;;;;;;;18.80;11.70;;;5.20;99.90;;;;;;4916290;28;1037482;-72
2022/01/13 12:35:27;;;;;;;21.30;12.93;;;5.20;99.90;;;;;;4951845;29;20243;-73
2022/01/13 12:38:03;;;;;;;23.30;9.43;;;5.20;99.90;;;;;;4955461;28;20425;-74
2022/01/13 12:40:40;;;;;;;19.53;12.90;;;5.00;99.90;;;;;;4953538;28;20586;-70
2022/01/13 12:43:32;;;;;;;21.60;12.13;;;4.90;99.90;;;;;;4953815;28;20398;-73
2022/01/13 12:45:59;;;;;;;19.27;12.53;;;4.90;99.90;;;;;;4951663;29;20442;-73
2022/01/13 12:48:28;;;;;;;18.70;10.83;;;4.80;99.90;;;;;;4950742;29;20430;-74
2022/01/13 12:50:53;;;;;;;17.40;12.20;;;4.90;99.90;;;;;;4952895;28;20536;-73
2022/01/13 12:53:25;;;;;;;21.20;13.37;;;4.80;99.90;;;;;;4953297;29;20520;-73
2022/01/13 12:56:14;;;;;;;20.87;12.70;;;4.90;99.90;;;;;;4952887;28;20192;-70
2022/01/13 12:58:43;;;;;;;26.33;13.37;;;4.90;99.90;;;;;;4953203;28;20968;-73
2022/01/13 13:01:13;;;;;;;25.33;12.97;;;5.10;99.90;;;;;;4954735;28;20442;-73
2022/01/13 13:03:39;;;;;;;23.27;14.70;;;5.00;99.90;;;;;;4952194;28;20810;-72
2022/01/13 13:06:16;;;;;;;20.67;13.27;;;5.00;99.90;;;;;;4954456;29;20410;-72
2022/01/13 13:08:47;;;;;;;19.90;14.07;;;5.00;99.90;;;;;;4951138;28;20186;-72
2022/01/13 13:11:13;;;;;;;19.10;12.93;;;4.90;99.90;;;;;;4953937;28;20438;-72
2022/01/13 13:13:51;;;;;;;22.20;12.90;;;4.90;99.90;;;;;;4946961;29;20508;-73
2022/01/13 13:16:17;;;;;;;24.50;14.00;;;4.90;99.90;;;;;;4954716;28;20826;-72
2022/01/13 13:18:43;;;;;;;23.73;13.40;;;4.90;99.90;;;;;;4950240;28;20471;-73
2022/01/13 13:21:11;;;;;;;22.83;14.23;;;4.90;99.90;;;;;;4953736;28;20197;-73
2022/01/13 13:23:40;;;;;;;19.90;13.33;;;4.90;99.90;;;;;;4951232;28;20466;-73
2022/01/13 13:26:14;;;;;;;18.90;12.40;;;5.00;99.90;;;;;;4954504;29;20946;-72
2022/01/13 13:28:51;;;;;;;18.73;12.90;;;5.00;99.90;;;;;;4954640;28;20422;-74
2022/01/13 13:31:27;;;;;;;24.70;15.80;;;5.00;99.90;;;;;;4945889;28;20466;-73
2022/01/13 13:33:58;;;;;;;21.93;13.90;;;4.90;99.90;;;;;;4950417;29;20493;-72
2022/01/13 13:36:34;;;;;;;24.27;13.60;;;4.90;99.90;;;;;;4952250;29;20472;-73
2022/01/13 13:39:17;;;;;;;20.97;11.77;;;5.00;99.90;;;;;;4954435;28;20381;-72
2022/01/13 13:41:49;;;;;;;22.40;13.23;;;5.00;99.90;;;;;;4950229;28;20473;-73
2022/01/13 13:44:19;;;;;;;18.90;13.50;;;5.00;99.90;;;;;;4952447;28;20464;-73
2022/01/13 13:46:45;;;;;;;21.87;12.87;;;4.90;99.90;;;;;;4948159;29;20442;-73
2022/01/13 13:49:12;;;;;;;19.27;13.50;;;4.90;99.90;;;;;;4953884;28;20430;-72
2022/01/13 13:51:38;;;;;;;18.53;13.57;;;4.90;99.90;;;;;;4952278;28;20457;-73
2022/01/13 13:54:17;;;;;;;19.70;12.33;;;5.00;99.90;;;;;;4951098;28;20505;-73
2022/01/13 13:56:49;;;;;;;25.07;14.00;;;5.00;99.90;;;;;;4953506;28;20418;-73
2022/01/13 13:59:21;;;;;;;22.73;13.07;;;5.00;99.90;;;;;;4952576;29;20444;-73
2022/01/13 14:02:00;;;;;;;21.30;13.00;;;5.00;99.90;;;;;;4953432;28;20430;-73
2022/01/13 14:04:39;;;;;;;24.27;13.20;;;5.10;99.90;;;;;;4947227;29;20512;-73
2022/01/13 14:07:32;;;;;;;22.60;14.40;;;4.90;99.90;;;;;;4953899;28;20981;-73
2022/01/13 14:10:06;;;;;;;24.33;15.30;;;4.90;99.90;;;;;;4951174;29;20463;-73
2022/01/13 14:12:38;;;;;;;29.93;14.53;;;4.90;99.90;;;;;;4948612;28;21306;-71
2022/01/13 14:15:24;;;;;;;23.27;13.40;;;5.00;99.90;;;;;;4949680;29;20438;-73
2022/01/13 14:17:56;;;;;;;23.87;15.10;;;4.90;99.90;;;;;;4951692;29;20995;-73
2022/01/13 14:20:25;;;;;;;22.90;12.77;;;5.00;99.90;;;;;;4950159;28;21207;-73
2022/01/13 14:23:01;;;;;;;20.87;12.83;;;5.00;99.90;;;;;;4952600;28;20448;-73
2022/01/13 14:25:30;;;;;;;23.57;14.00;;;5.00;99.90;;;;;;4951454;29;20426;-73
2022/01/13 14:27:58;;;;;;;18.97;12.90;;;5.10;99.90;;;;;;4951221;28;20413;-73
2022/01/13 14:30:30;;;;;;;18.27;12.70;;;5.10;99.90;;;;;;4950554;28;20431;-73
2022/01/13 14:33:35;;;;;;;21.90;13.10;;;5.10;99.90;;;;;;4950099;28;20438;-73
2022/01/13 14:36:02;;;;;;;24.73;14.43;;;5.10;99.90;;;;;;4893174;29;20535;-72
2022/01/13 14:38:51;;;;;;;26.77;13.07;;;5.10;99.90;;;;;;4893183;29;20538;-72
2022/01/13 14:41:25;;;;;;;25.13;15.67;;;5.10;99.90;;;;;;4929273;28;20500;-72
2022/01/13 14:44:06;;;;;;;31.63;17.83;;;5.20;99.90;;;;;;4952098;28;20484;-71
2022/01/13 14:46:38;;;;;;;24.20;15.23;;;5.20;99.90;;;;;;4950558;28;20482;-72
2022/01/13 14:49:05;;;;;;;24.03;14.70;;;5.20;99.90;;;;;;4949166;29;20438;-71
2022/01/13 14:51:32;;;;;;;22.83;15.10;;;5.20;99.90;;;;;;4951703;28;20420;-71
2022/01/13 14:53:59;;;;;;;27.50;15.20;;;5.20;99.90;;;;;;4934939;29;20937;-71
2022/01/13 14:56:25;;;;;;;21.60;14.60;;;5.20;99.90;;;;;;4935982;29;20414;-73
2022/01/13 14:58:52;;;;;;;22.70;15.13;;;5.10;99.90;;;;;;4948292;28;20461;-71
2022/01/13 15:01:18;;;;;;;26.77;15.97;;;5.10;99.90;;;;;;4951654;28;20445;-73
2022/01/13 15:03:44;;;;;;;29.30;16.77;;;5.10;99.90;;;;;;4948102;29;20509;-72
2022/01/13 15:06:10;;;;;;;29.90;16.30;;;5.10;99.90;;;;;;4951368;29;20426;-73
2022/01/13 15:08:36;;;;;;;27.27;16.70;;;5.10;99.90;;;;;;4950822;29;20496;-72
2022/01/13 15:11:03;;;;;;;25.20;15.43;;;5.20;99.90;;;;;;4950721;28;20458;-71
2022/01/13 15:13:29;;;;;;;24.87;14.70;;;5.20;99.90;;;;;;4946984;28;20448;-72
2022/01/13 15:15:54;;;;;;;28.13;16.60;;;5.20;99.90;;;;;;4952607;29;20492;-72
2022/01/13 15:18:21;;;;;;;28.30;16.37;;;5.10;99.90;;;;;;4950160;29;20193;-71
2022/01/13 15:20:48;;;;;;;23.63;14.30;;;5.00;99.90;;;;;;4947796;28;20196;-71
2022/01/13 15:23:13;;;;;;;26.90;16.07;;;5.00;99.90;;;;;;4951295;28;20400;-71
2022/01/13 15:25:40;;;;;;;25.57;14.77;;;4.90;99.90;;;;;;4950485;28;20411;-72
2022/01/13 15:28:06;;;;;;;36.03;15.27;;;4.80;99.90;;;;;;4952431;28;20381;-71
2022/01/13 15:30:32;;;;;;;26.80;16.80;;;4.80;99.90;;;;;;4948468;28;20416;-69
2022/01/13 15:32:58;;;;;;;26.93;14.77;;;4.80;99.90;;;;;;4946360;29;20507;-70
2022/01/13 15:35:23;;;;;;;26.47;14.83;;;4.70;99.90;;;;;;4949810;29;20526;-70
2022/01/13 15:37:50;;;;;;;29.30;19.10;;;4.60;99.90;;;;;;4952378;29;20238;-73
2022/01/13 15:40:17;;;;;;;32.33;16.97;;;4.70;99.90;;;;;;4951688;28;20196;-73
2022/01/13 15:42:44;;;;;;;25.40;15.73;;;4.50;99.90;;;;;;4948778;28;20543;-73
2022/01/13 15:45:11;;;;;;;23.43;17.03;;;4.30;99.90;;;;;;4952119;28;20469;-73
2022/01/13 15:47:38;;;;;;;24.40;14.10;;;4.30;99.90;;;;;;4947249;28;20467;-73
2022/01/13 15:50:07;;;;;;;21.00;13.40;;;4.20;99.90;;;;;;4951614;28;20421;-72
2022/01/13 15:52:33;;;;;;;22.03;12.20;;;4.10;99.90;;;;;;4948967;28;20477;-71
2022/01/13 15:54:59;;;;;;;23.83;12.53;;;3.80;99.90;;;;;;4950244;29;20430;-72
2022/01/13 15:57:25;;;;;;;35.23;15.50;;;3.70;99.90;;;;;;4950049;29;20947;-73
2022/01/13 15:59:50;;;;;;;21.60;11.93;;;3.50;99.90;;;;;;4952094;29;20184;-73
2022/01/13 16:02:15;;;;;;;24.07;12.77;;;3.30;99.90;;;;;;4948969;28;20197;-74
2022/01/13 16:04:41;;;;;;;28.23;12.70;;;3.20;99.90;;;;;;4947432;29;20221;-74
2022/01/13 16:07:07;;;;;;;21.23;11.37;;;3.10;99.90;;;;;;4952005;29;20713;-73
2022/01/13 16:09:33;;;;;;;26.20;13.63;;;3.10;99.90;;;;;;4949711;29;20288;-73
2022/01/13 16:11:59;;;;;;;28.93;14.27;;;3.00;99.90;;;;;;4949864;28;20239;-74
2022/01/13 16:14:27;;;;;;;23.27;12.57;;;2.90;99.90;;;;;;4946644;29;20480;-73
2022/01/13 16:16:52;;;;;;;21.87;12.50;;;2.80;99.90;;;;;;4949983;28;20260;-73
2022/01/13 16:19:18;;;;;;;24.07;13.50;;;2.70;99.90;;;;;;4950815;29;21060;-73
2022/01/13 16:21:43;;;;;;;20.73;11.90;;;2.70;99.90;;;;;;4950763;28;20792;-73
2022/01/13 16:24:09;;;;;;;31.30;12.17;;;2.60;99.90;;;;;;4950841;29;20281;-73
2022/01/13 16:26:34;;;;;;;23.07;11.27;;;2.50;99.90;;;;;;4948335;29;20189;-73
2022/01/13 16:29:00;;;;;;;24.63;12.63;;;2.40;99.90;;;;;;4952290;29;20177;-72
2022/01/13 16:31:25;;;;;;;24.40;12.87;;;2.20;99.90;;;;;;4947648;28;20220;-73
2022/01/13 16:33:51;;;;;;;19.40;12.17;;;2.20;99.90;;;;;;4945356;29;20277;-71
2022/01/13 16:36:21;;;;;;;17.97;13.40;;;2.20;99.90;;;;;;4949408;28;20196;-73
2022/01/13 16:38:50;;;;;;;22.87;13.83;;;2.10;99.90;;;;;;4950035;28;20446;-73
2022/01/13 16:41:16;;;;;;;26.93;12.33;;;2.00;99.90;;;;;;4949921;28;20443;-73
2022/01/13 16:43:41;;;;;;;17.57;10.40;;;1.90;99.90;;;;;;4950256;29;20438;-73
2022/01/13 16:46:09;;;;;;;24.20;12.50;;;1.90;99.90;;;;;;4950543;29;20177;-73
2022/01/13 16:48:34;;;;;;;20.37;12.50;;;1.90;99.90;;;;;;4947258;28;20782;-72
2022/01/13 16:51:02;;;;;;;21.63;11.77;;;1.80;99.90;;;;;;4951572;28;20411;-74
2022/01/13 16:53:28;;;;;;;19.50;11.67;;;1.80;99.90;;;;;;4948524;28;20193;-73
2022/01/13 16:55:55;;;;;;;25.30;11.80;;;1.70;99.90;;;;;;4953632;28;20445;-74
2022/01/13 16:58:22;;;;;;;29.03;16.20;;;1.60;99.90;;;;;;4953111;28;20443;-74
2022/01/13 17:00:49;;;;;;;37.13;19.00;;;1.60;99.90;;;;;;4952516;28;20440;-72
2022/01/13 17:03:15;;;;;;;27.53;15.50;;;1.60;99.90;;;;;;4951134;28;20498;-74
2022/01/13 17:05:45;;;;;;;22.23;12.17;;;1.50;99.90;;;;;;4953895;29;20402;-74
2022/01/13 17:08:12;;;;;;;25.13;12.10;;;1.40;99.90;;;;;;4954495;28;20431;-73
2022/01/13 17:10:38;;;;;;;24.87;11.20;;;1.50;99.90;;;;;;4946686;28;20469;-74
2022/01/13 17:13:05;;;;;;;21.33;10.57;;;1.40;99.90;;;;;;4944473;29;20458;-74
2022/01/13 17:15:32;;;;;;;15.17;11.13;;;1.40;99.90;;;;;;4951678;29;20273;-72
2022/01/13 17:17:57;;;;;;;20.23;9.87;;;1.30;99.90;;;;;;4952092;28;20419;-73
2022/01/13 17:20:23;;;;;;;20.13;11.90;;;1.20;99.90;;;;;;4950819;28;20519;-74
2022/01/13 17:22:49;;;;;;;18.47;10.97;;;1.20;99.90;;;;;;4947783;28;20272;-73
2022/01/13 17:25:18;;;;;;;17.63;9.87;;;1.30;99.90;;;;;;4949461;29;20451;-73
2022/01/13 17:27:44;;;;;;;17.90;10.97;;;1.20;99.90;;;;;;4950570;29;20192;-73
2022/01/13 17:30:13;;;;;;;23.37;11.20;;;1.10;99.90;;;;;;4954541;29;20413;-73
2022/01/13 17:32:38;;;;;;;17.80;9.87;;;1.10;99.90;;;;;;4948174;29;20481;-73